sensor_id;sensor_type;location;lat;lon;timestamp;P1;durP1;ratioP1;P2;durP2;ratioP2
10275;SDS011;5183;51.190;6.820;2024-02-04T00:01:02;8.93;;;7.10;;
10275;SDS011;5183;51.190;6.820;2024-02-04T00:03:29;6.53;;;5.83;;
10275;SDS011;5183;51.190;6.820;2024-02-04T00:05:57;6.20;;;5.60;;
10275;SDS011;5183;51.190;6.820;2024-02-04T00:08:24;5.83;;;5.13;;
10275;SDS011;5183;51.190;6.820;2024-02-04T00:10:51;6.63;;;4.70;;
10275;SDS011;5183;51.190;6.820;2024-02-04T00:13:17;4.67;;;4.27;;
10275;SDS011;5183;51.190;6.820;2024-02-04T00:15:44;4.43;;;4.03;;
10275;SDS011;5183;51.190;6.820;2024-02-04T00:18:11;4.33;;;3.93;;
10275;SDS011;5183;51.190;6.820;2024-02-04T00:20:38;4.10;;;3.70;;
10275;SDS011;5183;51.190;6.820;2024-02-04T00:23:06;4.17;;;3.77;;
10275;SDS011;5183;51.190;6.820;2024-02-04T00:25:33;4.83;;;4.10;;
10275;SDS011;5183;51.190;6.820;2024-02-04T00:28:00;5.27;;;4.70;;
10275;SDS011;5183;51.190;6.820;2024-02-04T00:30:27;6.07;;;5.40;;
10275;SDS011;5183;51.190;6.820;2024-02-04T00:32:53;7.10;;;6.40;;
10275;SDS011;5183;51.190;6.820;2024-02-04T00:35:20;7.17;;;6.43;;
10275;SDS011;5183;51.190;6.820;2024-02-04T00:37:47;8.53;;;7.73;;
10275;SDS011;5183;51.190;6.820;2024-02-04T00:40:15;8.77;;;7.87;;
10275;SDS011;5183;51.190;6.820;2024-02-04T00:42:42;9.87;;;8.70;;
10275;SDS011;5183;51.190;6.820;2024-02-04T00:45:09;10.37;;;9.10;;
10275;SDS011;5183;51.190;6.820;2024-02-04T00:47:36;10.90;;;9.57;;
10275;SDS011;5183;51.190;6.820;2024-02-04T00:50:03;10.23;;;9.13;;
10275;SDS011;5183;51.190;6.820;2024-02-04T00:52:31;10.90;;;9.40;;
10275;SDS011;5183;51.190;6.820;2024-02-04T00:54:58;12.53;;;10.70;;
10275;SDS011;5183;51.190;6.820;2024-02-04T00:57:26;11.70;;;10.20;;
10275;SDS011;5183;51.190;6.820;2024-02-04T00:59:53;13.33;;;10.40;;
10275;SDS011;5183;51.190;6.820;2024-02-04T01:02:19;10.33;;;9.30;;
10275;SDS011;5183;51.190;6.820;2024-02-04T01:04:46;10.90;;;9.70;;
10275;SDS011;5183;51.190;6.820;2024-02-04T01:07:15;11.10;;;9.57;;
10275;SDS011;5183;51.190;6.820;2024-02-04T01:09:42;11.00;;;9.40;;
10275;SDS011;5183;51.190;6.820;2024-02-04T01:12:09;10.80;;;9.40;;
10275;SDS011;5183;51.190;6.820;2024-02-04T01:14:37;13.00;;;9.87;;
10275;SDS011;5183;51.190;6.820;2024-02-04T01:17:04;10.17;;;8.93;;
10275;SDS011;5183;51.190;6.820;2024-02-04T01:19:30;10.70;;;9.40;;
10275;SDS011;5183;51.190;6.820;2024-02-04T01:21:57;12.03;;;9.23;;
10275;SDS011;5183;51.190;6.820;2024-02-04T01:24:27;10.23;;;9.13;;
10275;SDS011;5183;51.190;6.820;2024-02-04T01:26:53;11.27;;;8.67;;
10275;SDS011;5183;51.190;6.820;2024-02-04T01:29:20;10.47;;;8.77;;
10275;SDS011;5183;51.190;6.820;2024-02-04T01:31:48;12.23;;;9.53;;
10275;SDS011;5183;51.190;6.820;2024-02-04T01:34:16;11.73;;;9.77;;
10275;SDS011;5183;51.190;6.820;2024-02-04T01:36:43;10.77;;;9.13;;
10275;SDS011;5183;51.190;6.820;2024-02-04T01:39:09;10.60;;;9.20;;
10275;SDS011;5183;51.190;6.820;2024-02-04T01:41:36;13.23;;;9.87;;
10275;SDS011;5183;51.190;6.820;2024-02-04T01:44:03;10.53;;;9.23;;
10275;SDS011;5183;51.190;6.820;2024-02-04T01:46:31;11.80;;;9.40;;
10275;SDS011;5183;51.190;6.820;2024-02-04T01:48:59;11.63;;;9.53;;
10275;SDS011;5183;51.190;6.820;2024-02-04T01:51:26;11.70;;;9.83;;
10275;SDS011;5183;51.190;6.820;2024-02-04T01:53:53;11.07;;;9.33;;
10275;SDS011;5183;51.190;6.820;2024-02-04T01:56:20;11.10;;;9.47;;
10275;SDS011;5183;51.190;6.820;2024-02-04T01:58:47;11.47;;;9.67;;
10275;SDS011;5183;51.190;6.820;2024-02-04T02:01:15;11.13;;;9.10;;
10275;SDS011;5183;51.190;6.820;2024-02-04T02:03:42;12.67;;;9.90;;
10275;SDS011;5183;51.190;6.820;2024-02-04T02:06:10;12.10;;;9.50;;
10275;SDS011;5183;51.190;6.820;2024-02-04T02:08:38;11.67;;;10.47;;
10275;SDS011;5183;51.190;6.820;2024-02-04T02:11:08;12.50;;;9.90;;
10275;SDS011;5183;51.190;6.820;2024-02-04T02:13:41;11.80;;;10.40;;
10275;SDS011;5183;51.190;6.820;2024-02-04T02:16:13;13.00;;;10.27;;
10275;SDS011;5183;51.190;6.820;2024-02-04T02:18:45;13.63;;;10.67;;
10275;SDS011;5183;51.190;6.820;2024-02-04T02:21:19;12.77;;;10.30;;
10275;SDS011;5183;51.190;6.820;2024-02-04T02:24:02;12.27;;;10.10;;
10275;SDS011;5183;51.190;6.820;2024-02-04T02:26:37;12.53;;;10.27;;
10275;SDS011;5183;51.190;6.820;2024-02-04T02:29:04;12.37;;;10.50;;
10275;SDS011;5183;51.190;6.820;2024-02-04T02:31:33;11.57;;;9.70;;
10275;SDS011;5183;51.190;6.820;2024-02-04T02:34:00;12.83;;;10.43;;
10275;SDS011;5183;51.190;6.820;2024-02-04T02:36:28;12.50;;;10.63;;
10275;SDS011;5183;51.190;6.820;2024-02-04T02:38:59;12.43;;;9.83;;
10275;SDS011;5183;51.190;6.820;2024-02-04T02:41:37;11.07;;;9.87;;
10275;SDS011;5183;51.190;6.820;2024-02-04T02:44:07;12.93;;;10.37;;
10275;SDS011;5183;51.190;6.820;2024-02-04T02:46:35;12.10;;;10.10;;
10275;SDS011;5183;51.190;6.820;2024-02-04T02:49:03;11.17;;;9.57;;
10275;SDS011;5183;51.190;6.820;2024-02-04T02:51:30;12.07;;;9.83;;
10275;SDS011;5183;51.190;6.820;2024-02-04T02:53:57;11.67;;;9.57;;
10275;SDS011;5183;51.190;6.820;2024-02-04T02:56:23;12.10;;;10.00;;
10275;SDS011;5183;51.190;6.820;2024-02-04T02:58:52;11.07;;;9.33;;
10275;SDS011;5183;51.190;6.820;2024-02-04T03:01:18;13.50;;;9.40;;
10275;SDS011;5183;51.190;6.820;2024-02-04T03:03:45;11.23;;;9.63;;
10275;SDS011;5183;51.190;6.820;2024-02-04T03:06:12;11.23;;;9.30;;
10275;SDS011;5183;51.190;6.820;2024-02-04T03:08:39;11.30;;;8.80;;
10275;SDS011;5183;51.190;6.820;2024-02-04T03:11:05;12.70;;;9.33;;
10275;SDS011;5183;51.190;6.820;2024-02-04T03:13:32;10.57;;;8.57;;
10275;SDS011;5183;51.190;6.820;2024-02-04T03:16:01;11.47;;;9.57;;
10275;SDS011;5183;51.190;6.820;2024-02-04T03:18:27;9.73;;;8.73;;
10275;SDS011;5183;51.190;6.820;2024-02-04T03:20:54;12.23;;;9.80;;
10275;SDS011;5183;51.190;6.820;2024-02-04T03:23:21;13.33;;;9.60;;
10275;SDS011;5183;51.190;6.820;2024-02-04T03:25:48;13.00;;;10.07;;
10275;SDS011;5183;51.190;6.820;2024-02-04T03:28:14;11.87;;;9.67;;
10275;SDS011;5183;51.190;6.820;2024-02-04T03:30:41;13.03;;;10.70;;
10275;SDS011;5183;51.190;6.820;2024-02-04T03:33:09;12.77;;;10.30;;
10275;SDS011;5183;51.190;6.820;2024-02-04T03:35:36;11.50;;;9.23;;
10275;SDS011;5183;51.190;6.820;2024-02-04T03:38:03;14.40;;;10.17;;
10275;SDS011;5183;51.190;6.820;2024-02-04T03:40:30;14.90;;;9.77;;
10275;SDS011;5183;51.190;6.820;2024-02-04T03:42:57;12.40;;;9.83;;
10275;SDS011;5183;51.190;6.820;2024-02-04T03:45:23;13.00;;;9.90;;
10275;SDS011;5183;51.190;6.820;2024-02-04T03:47:50;12.47;;;10.23;;
10275;SDS011;5183;51.190;6.820;2024-02-04T03:50:18;12.03;;;9.67;;
10275;SDS011;5183;51.190;6.820;2024-02-04T03:52:45;12.53;;;10.43;;
10275;SDS011;5183;51.190;6.820;2024-02-04T03:55:12;12.27;;;10.30;;
10275;SDS011;5183;51.190;6.820;2024-02-04T03:57:39;12.90;;;10.17;;
10275;SDS011;5183;51.190;6.820;2024-02-04T04:00:07;14.03;;;11.27;;
10275;SDS011;5183;51.190;6.820;2024-02-04T04:02:35;14.97;;;11.63;;
10275;SDS011;5183;51.190;6.820;2024-02-04T04:05:02;15.53;;;11.97;;
10275;SDS011;5183;51.190;6.820;2024-02-04T04:07:30;13.50;;;11.43;;
10275;SDS011;5183;51.190;6.820;2024-02-04T04:09:57;18.10;;;12.40;;
10275;SDS011;5183;51.190;6.820;2024-02-04T04:12:24;16.13;;;12.43;;
10275;SDS011;5183;51.190;6.820;2024-02-04T04:14:51;16.47;;;12.93;;
10275;SDS011;5183;51.190;6.820;2024-02-04T04:17:18;19.10;;;14.07;;
10275;SDS011;5183;51.190;6.820;2024-02-04T04:19:45;17.53;;;13.93;;
10275;SDS011;5183;51.190;6.820;2024-02-04T04:22:11;19.27;;;14.73;;
10275;SDS011;5183;51.190;6.820;2024-02-04T04:24:40;21.23;;;14.57;;
10275;SDS011;5183;51.190;6.820;2024-02-04T04:27:06;20.80;;;15.67;;
10275;SDS011;5183;51.190;6.820;2024-02-04T04:29:33;19.27;;;14.40;;
10275;SDS011;5183;51.190;6.820;2024-02-04T04:32:00;20.90;;;15.40;;
10275;SDS011;5183;51.190;6.820;2024-02-04T04:34:27;20.43;;;14.90;;
10275;SDS011;5183;51.190;6.820;2024-02-04T04:36:54;18.20;;;14.07;;
10275;SDS011;5183;51.190;6.820;2024-02-04T04:39:21;19.63;;;14.50;;
10275;SDS011;5183;51.190;6.820;2024-02-04T04:41:49;19.23;;;14.63;;
10275;SDS011;5183;51.190;6.820;2024-02-04T04:44:16;18.97;;;14.00;;
10275;SDS011;5183;51.190;6.820;2024-02-04T04:46:42;19.00;;;14.30;;
10275;SDS011;5183;51.190;6.820;2024-02-04T04:49:09;16.57;;;13.40;;
10275;SDS011;5183;51.190;6.820;2024-02-04T04:51:36;19.57;;;14.13;;
10275;SDS011;5183;51.190;6.820;2024-02-04T04:54:03;17.53;;;13.67;;
10275;SDS011;5183;51.190;6.820;2024-02-04T04:56:30;16.47;;;13.37;;
10275;SDS011;5183;51.190;6.820;2024-02-04T04:59:05;17.87;;;13.43;;
10275;SDS011;5183;51.190;6.820;2024-02-04T05:01:32;20.77;;;14.77;;
10275;SDS011;5183;51.190;6.820;2024-02-04T05:04:00;18.23;;;13.77;;
10275;SDS011;5183;51.190;6.820;2024-02-04T05:06:27;19.70;;;14.63;;
10275;SDS011;5183;51.190;6.820;2024-02-04T05:08:54;20.67;;;15.27;;
10275;SDS011;5183;51.190;6.820;2024-02-04T05:11:20;23.83;;;15.27;;
10275;SDS011;5183;51.190;6.820;2024-02-04T05:13:47;20.07;;;15.83;;
10275;SDS011;5183;51.190;6.820;2024-02-04T05:16:15;23.03;;;16.20;;
10275;SDS011;5183;51.190;6.820;2024-02-04T05:18:42;20.40;;;15.27;;
10275;SDS011;5183;51.190;6.820;2024-02-04T05:21:09;22.37;;;15.60;;
10275;SDS011;5183;51.190;6.820;2024-02-04T05:23:36;21.57;;;15.80;;
10275;SDS011;5183;51.190;6.820;2024-02-04T05:26:03;21.13;;;16.10;;
10275;SDS011;5183;51.190;6.820;2024-02-04T05:28:30;21.50;;;16.90;;
10275;SDS011;5183;51.190;6.820;2024-02-04T05:30:57;22.67;;;15.97;;
10275;SDS011;5183;51.190;6.820;2024-02-04T05:33:25;22.50;;;16.53;;
10275;SDS011;5183;51.190;6.820;2024-02-04T05:35:52;22.67;;;17.30;;
10275;SDS011;5183;51.190;6.820;2024-02-04T05:38:19;24.63;;;17.37;;
10275;SDS011;5183;51.190;6.820;2024-02-04T05:40:47;23.90;;;16.70;;
10275;SDS011;5183;51.190;6.820;2024-02-04T05:43:14;25.73;;;18.07;;
10275;SDS011;5183;51.190;6.820;2024-02-04T05:45:41;25.17;;;17.47;;
10275;SDS011;5183;51.190;6.820;2024-02-04T05:48:08;24.37;;;17.50;;
10275;SDS011;5183;51.190;6.820;2024-02-04T05:50:37;21.13;;;16.30;;
10275;SDS011;5183;51.190;6.820;2024-02-04T05:53:03;25.53;;;17.40;;
10275;SDS011;5183;51.190;6.820;2024-02-04T05:55:30;22.67;;;16.40;;
10275;SDS011;5183;51.190;6.820;2024-02-04T05:57:57;20.47;;;16.53;;
10275;SDS011;5183;51.190;6.820;2024-02-04T06:00:24;21.73;;;15.23;;
10275;SDS011;5183;51.190;6.820;2024-02-04T06:02:51;21.20;;;15.87;;
10275;SDS011;5183;51.190;6.820;2024-02-04T06:05:18;20.60;;;15.43;;
10275;SDS011;5183;51.190;6.820;2024-02-04T06:07:46;22.10;;;15.47;;
10275;SDS011;5183;51.190;6.820;2024-02-04T06:10:13;25.07;;;16.17;;
10275;SDS011;5183;51.190;6.820;2024-02-04T06:12:40;20.43;;;14.50;;
10275;SDS011;5183;51.190;6.820;2024-02-04T06:15:11;20.43;;;15.07;;
10275;SDS011;5183;51.190;6.820;2024-02-04T06:17:39;23.57;;;15.27;;
10275;SDS011;5183;51.190;6.820;2024-02-04T06:20:06;22.27;;;16.10;;
10275;SDS011;5183;51.190;6.820;2024-02-04T06:22:33;23.77;;;16.83;;
10275;SDS011;5183;51.190;6.820;2024-02-04T06:25:02;21.93;;;16.13;;
10275;SDS011;5183;51.190;6.820;2024-02-04T06:27:29;26.47;;;17.13;;
10275;SDS011;5183;51.190;6.820;2024-02-04T06:29:56;22.87;;;16.73;;
10275;SDS011;5183;51.190;6.820;2024-02-04T06:32:23;24.83;;;17.10;;
10275;SDS011;5183;51.190;6.820;2024-02-04T06:34:50;23.17;;;16.13;;
10275;SDS011;5183;51.190;6.820;2024-02-04T06:37:19;21.17;;;15.73;;
10275;SDS011;5183;51.190;6.820;2024-02-04T06:39:46;22.63;;;15.10;;
10275;SDS011;5183;51.190;6.820;2024-02-04T06:42:14;20.20;;;14.87;;
10275;SDS011;5183;51.190;6.820;2024-02-04T06:44:42;18.50;;;14.20;;
10275;SDS011;5183;51.190;6.820;2024-02-04T06:47:09;20.93;;;14.63;;
10275;SDS011;5183;51.190;6.820;2024-02-04T06:49:37;18.30;;;13.63;;
10275;SDS011;5183;51.190;6.820;2024-02-04T06:52:04;18.37;;;13.00;;
10275;SDS011;5183;51.190;6.820;2024-02-04T06:54:31;18.90;;;12.67;;
10275;SDS011;5183;51.190;6.820;2024-02-04T06:56:58;17.97;;;12.50;;
10275;SDS011;5183;51.190;6.820;2024-02-04T06:59:26;16.67;;;12.67;;
10275;SDS011;5183;51.190;6.820;2024-02-04T07:01:53;16.20;;;12.00;;
10275;SDS011;5183;51.190;6.820;2024-02-04T07:04:20;16.33;;;11.57;;
10275;SDS011;5183;51.190;6.820;2024-02-04T07:06:49;13.97;;;11.10;;
10275;SDS011;5183;51.190;6.820;2024-02-04T07:09:16;14.27;;;10.67;;
10275;SDS011;5183;51.190;6.820;2024-02-04T07:11:43;15.13;;;11.10;;
10275;SDS011;5183;51.190;6.820;2024-02-04T07:14:09;14.10;;;9.73;;
10275;SDS011;5183;51.190;6.820;2024-02-04T07:16:38;11.07;;;9.23;;
10275;SDS011;5183;51.190;6.820;2024-02-04T07:19:04;10.93;;;8.43;;
10275;SDS011;5183;51.190;6.820;2024-02-04T07:21:31;9.90;;;8.60;;
10275;SDS011;5183;51.190;6.820;2024-02-04T07:23:58;11.93;;;8.33;;
10275;SDS011;5183;51.190;6.820;2024-02-04T07:26:25;11.23;;;8.33;;
10275;SDS011;5183;51.190;6.820;2024-02-04T07:28:52;11.03;;;8.60;;
10275;SDS011;5183;51.190;6.820;2024-02-04T07:31:18;10.20;;;7.57;;
10275;SDS011;5183;51.190;6.820;2024-02-04T07:33:48;9.87;;;7.80;;
10275;SDS011;5183;51.190;6.820;2024-02-04T07:36:15;9.33;;;7.47;;
10275;SDS011;5183;51.190;6.820;2024-02-04T07:38:41;9.30;;;7.43;;
10275;SDS011;5183;51.190;6.820;2024-02-04T07:41:08;8.97;;;7.10;;
10275;SDS011;5183;51.190;6.820;2024-02-04T07:43:35;9.17;;;6.90;;
10275;SDS011;5183;51.190;6.820;2024-02-04T07:46:02;8.80;;;7.20;;
10275;SDS011;5183;51.190;6.820;2024-02-04T07:48:29;9.07;;;7.67;;
10275;SDS011;5183;51.190;6.820;2024-02-04T07:50:57;10.57;;;7.47;;
10275;SDS011;5183;51.190;6.820;2024-02-04T07:53:24;9.23;;;6.87;;
10275;SDS011;5183;51.190;6.820;2024-02-04T07:55:51;9.07;;;7.10;;
10275;SDS011;5183;51.190;6.820;2024-02-04T07:58:18;10.10;;;8.03;;
10275;SDS011;5183;51.190;6.820;2024-02-04T08:00:45;11.27;;;8.20;;
10275;SDS011;5183;51.190;6.820;2024-02-04T08:03:12;11.80;;;8.27;;
10275;SDS011;5183;51.190;6.820;2024-02-04T08:05:39;11.07;;;8.07;;
10275;SDS011;5183;51.190;6.820;2024-02-04T08:08:07;12.70;;;8.10;;
10275;SDS011;5183;51.190;6.820;2024-02-04T08:10:34;10.43;;;8.03;;
10275;SDS011;5183;51.190;6.820;2024-02-04T08:13:00;9.80;;;7.40;;
10275;SDS011;5183;51.190;6.820;2024-02-04T08:15:27;10.10;;;7.97;;
10275;SDS011;5183;51.190;6.820;2024-02-04T08:17:54;8.47;;;7.07;;
10275;SDS011;5183;51.190;6.820;2024-02-04T08:20:21;8.90;;;6.20;;
10275;SDS011;5183;51.190;6.820;2024-02-04T08:22:48;9.47;;;7.17;;
10275;SDS011;5183;51.190;6.820;2024-02-04T08:25:17;7.33;;;5.90;;
10275;SDS011;5183;51.190;6.820;2024-02-04T08:27:43;8.17;;;6.20;;
10275;SDS011;5183;51.190;6.820;2024-02-04T08:30:10;8.13;;;7.25;;
10275;SDS011;5183;51.190;6.820;2024-02-04T08:32:38;7.97;;;6.70;;
10275;SDS011;5183;51.190;6.820;2024-02-04T08:35:05;9.90;;;6.50;;
10275;SDS011;5183;51.190;6.820;2024-02-04T08:37:34;6.67;;;5.60;;
10275;SDS011;5183;51.190;6.820;2024-02-04T08:40:03;8.63;;;5.50;;
10275;SDS011;5183;51.190;6.820;2024-02-04T08:42:33;7.10;;;5.83;;
10275;SDS011;5183;51.190;6.820;2024-02-04T08:45:00;7.13;;;6.13;;
10275;SDS011;5183;51.190;6.820;2024-02-04T08:47:27;8.40;;;6.23;;
10275;SDS011;5183;51.190;6.820;2024-02-04T08:49:54;8.27;;;6.43;;
10275;SDS011;5183;51.190;6.820;2024-02-04T08:52:21;10.83;;;7.27;;
10275;SDS011;5183;51.190;6.820;2024-02-04T08:54:48;9.00;;;7.10;;
10275;SDS011;5183;51.190;6.820;2024-02-04T08:57:14;10.33;;;7.10;;
10275;SDS011;5183;51.190;6.820;2024-02-04T08:59:43;10.10;;;7.37;;
10275;SDS011;5183;51.190;6.820;2024-02-04T09:02:11;9.17;;;7.17;;
10275;SDS011;5183;51.190;6.820;2024-02-04T09:04:37;9.23;;;7.63;;
10275;SDS011;5183;51.190;6.820;2024-02-04T09:07:06;8.80;;;7.07;;
10275;SDS011;5183;51.190;6.820;2024-02-04T09:09:33;9.90;;;7.60;;
10275;SDS011;5183;51.190;6.820;2024-02-04T09:12:00;9.03;;;7.03;;
10275;SDS011;5183;51.190;6.820;2024-02-04T09:14:26;8.37;;;6.47;;
10275;SDS011;5183;51.190;6.820;2024-02-04T09:16:55;8.07;;;6.77;;
10275;SDS011;5183;51.190;6.820;2024-02-04T09:19:21;8.40;;;6.23;;
10275;SDS011;5183;51.190;6.820;2024-02-04T09:21:49;7.90;;;6.73;;
10275;SDS011;5183;51.190;6.820;2024-02-04T09:24:16;9.60;;;6.23;;
10275;SDS011;5183;51.190;6.820;2024-02-04T09:26:43;7.00;;;5.93;;
10275;SDS011;5183;51.190;6.820;2024-02-04T09:29:10;7.53;;;6.10;;
10275;SDS011;5183;51.190;6.820;2024-02-04T09:31:36;8.20;;;6.30;;
10275;SDS011;5183;51.190;6.820;2024-02-04T09:34:05;6.67;;;5.87;;
10275;SDS011;5183;51.190;6.820;2024-02-04T09:36:31;7.57;;;6.10;;
10275;SDS011;5183;51.190;6.820;2024-02-04T09:38:58;7.57;;;6.27;;
10275;SDS011;5183;51.190;6.820;2024-02-04T09:41:25;10.50;;;6.97;;
10275;SDS011;5183;51.190;6.820;2024-02-04T09:43:52;7.17;;;6.47;;
10275;SDS011;5183;51.190;6.820;2024-02-04T09:46:20;10.90;;;6.90;;
10275;SDS011;5183;51.190;6.820;2024-02-04T09:48:47;8.67;;;6.77;;
10275;SDS011;5183;51.190;6.820;2024-02-04T09:51:18;9.07;;;7.20;;
10275;SDS011;5183;51.190;6.820;2024-02-04T09:53:45;8.80;;;7.60;;
10275;SDS011;5183;51.190;6.820;2024-02-04T09:56:17;8.37;;;7.10;;
10275;SDS011;5183;51.190;6.820;2024-02-04T09:58:45;11.03;;;7.43;;
10275;SDS011;5183;51.190;6.820;2024-02-04T10:01:12;10.87;;;8.40;;
10275;SDS011;5183;51.190;6.820;2024-02-04T10:03:40;10.10;;;7.07;;
10275;SDS011;5183;51.190;6.820;2024-02-04T10:06:08;9.37;;;7.07;;
10275;SDS011;5183;51.190;6.820;2024-02-04T10:08:36;9.37;;;7.33;;
10275;SDS011;5183;51.190;6.820;2024-02-04T10:11:04;10.30;;;6.93;;
10275;SDS011;5183;51.190;6.820;2024-02-04T10:13:40;8.83;;;6.87;;
10275;SDS011;5183;51.190;6.820;2024-02-04T10:16:09;9.40;;;6.87;;
10275;SDS011;5183;51.190;6.820;2024-02-04T10:18:36;10.23;;;7.23;;
10275;SDS011;5183;51.190;6.820;2024-02-04T10:21:03;8.87;;;6.40;;
10275;SDS011;5183;51.190;6.820;2024-02-04T10:23:30;11.07;;;7.20;;
10275;SDS011;5183;51.190;6.820;2024-02-04T10:26:00;9.07;;;7.37;;
10275;SDS011;5183;51.190;6.820;2024-02-04T10:28:27;9.70;;;7.07;;
10275;SDS011;5183;51.190;6.820;2024-02-04T10:30:54;9.30;;;7.27;;
10275;SDS011;5183;51.190;6.820;2024-02-04T10:33:21;7.87;;;6.77;;
10275;SDS011;5183;51.190;6.820;2024-02-04T10:35:48;9.93;;;7.27;;
10275;SDS011;5183;51.190;6.820;2024-02-04T10:38:15;10.47;;;7.00;;
10275;SDS011;5183;51.190;6.820;2024-02-04T10:40:42;9.90;;;7.43;;
10275;SDS011;5183;51.190;6.820;2024-02-04T10:43:11;9.93;;;7.47;;
10275;SDS011;5183;51.190;6.820;2024-02-04T10:45:39;10.67;;;8.23;;
10275;SDS011;5183;51.190;6.820;2024-02-04T10:48:08;11.67;;;8.10;;
10275;SDS011;5183;51.190;6.820;2024-02-04T10:50:37;9.63;;;8.27;;
10275;SDS011;5183;51.190;6.820;2024-02-04T10:53:05;11.43;;;9.33;;
10275;SDS011;5183;51.190;6.820;2024-02-04T10:55:33;13.60;;;9.10;;
10275;SDS011;5183;51.190;6.820;2024-02-04T10:58:08;14.97;;;9.43;;
10275;SDS011;5183;51.190;6.820;2024-02-04T11:00:39;11.23;;;8.77;;
10275;SDS011;5183;51.190;6.820;2024-02-04T11:03:06;13.63;;;9.20;;
10275;SDS011;5183;51.190;6.820;2024-02-04T11:05:34;12.23;;;8.87;;
10275;SDS011;5183;51.190;6.820;2024-02-04T11:08:04;11.63;;;9.00;;
10275;SDS011;5183;51.190;6.820;2024-02-04T11:10:31;12.43;;;8.93;;
10275;SDS011;5183;51.190;6.820;2024-02-04T11:12:58;11.23;;;8.53;;
10275;SDS011;5183;51.190;6.820;2024-02-04T11:15:28;9.63;;;8.03;;
10275;SDS011;5183;51.190;6.820;2024-02-04T11:18:10;11.83;;;8.47;;
10275;SDS011;5183;51.190;6.820;2024-02-04T11:20:57;12.77;;;8.67;;
10275;SDS011;5183;51.190;6.820;2024-02-04T11:23:42;10.80;;;8.33;;
10275;SDS011;5183;51.190;6.820;2024-02-04T11:26:18;11.77;;;8.10;;
10275;SDS011;5183;51.190;6.820;2024-02-04T11:28:47;9.77;;;7.60;;
10275;SDS011;5183;51.190;6.820;2024-02-04T11:31:14;9.90;;;7.80;;
10275;SDS011;5183;51.190;6.820;2024-02-04T11:33:43;11.87;;;8.87;;
10275;SDS011;5183;51.190;6.820;2024-02-04T11:36:12;12.40;;;7.80;;
10275;SDS011;5183;51.190;6.820;2024-02-04T11:38:40;11.10;;;8.23;;
10275;SDS011;5183;51.190;6.820;2024-02-04T11:41:07;10.53;;;8.47;;
10275;SDS011;5183;51.190;6.820;2024-02-04T11:43:34;12.23;;;8.43;;
10275;SDS011;5183;51.190;6.820;2024-02-04T11:46:02;11.93;;;8.70;;
10275;SDS011;5183;51.190;6.820;2024-02-04T11:48:29;13.07;;;8.17;;
10275;SDS011;5183;51.190;6.820;2024-02-04T11:50:58;10.67;;;8.27;;
10275;SDS011;5183;51.190;6.820;2024-02-04T11:53:26;11.13;;;7.73;;
10275;SDS011;5183;51.190;6.820;2024-02-04T11:55:57;9.67;;;7.83;;
10275;SDS011;5183;51.190;6.820;2024-02-04T11:58:25;9.90;;;7.40;;
10275;SDS011;5183;51.190;6.820;2024-02-04T12:00:53;8.87;;;7.57;;
10275;SDS011;5183;51.190;6.820;2024-02-04T12:03:28;9.93;;;7.90;;
10275;SDS011;5183;51.190;6.820;2024-02-04T12:05:55;9.83;;;7.70;;
10275;SDS011;5183;51.190;6.820;2024-02-04T12:08:24;10.83;;;7.30;;
10275;SDS011;5183;51.190;6.820;2024-02-04T12:10:52;9.27;;;7.63;;
10275;SDS011;5183;51.190;6.820;2024-02-04T12:13:20;10.83;;;7.80;;
10275;SDS011;5183;51.190;6.820;2024-02-04T12:15:47;11.73;;;8.93;;
10275;SDS011;5183;51.190;6.820;2024-02-04T12:18:14;10.17;;;7.97;;
10275;SDS011;5183;51.190;6.820;2024-02-04T12:20:45;9.27;;;7.67;;
10275;SDS011;5183;51.190;6.820;2024-02-04T12:23:13;9.83;;;7.83;;
10275;SDS011;5183;51.190;6.820;2024-02-04T12:25:42;9.27;;;8.03;;
10275;SDS011;5183;51.190;6.820;2024-02-04T12:28:09;9.47;;;7.43;;
10275;SDS011;5183;51.190;6.820;2024-02-04T12:30:36;9.03;;;7.43;;
10275;SDS011;5183;51.190;6.820;2024-02-04T12:33:04;9.70;;;7.77;;
10275;SDS011;5183;51.190;6.820;2024-02-04T12:35:31;9.17;;;6.97;;
10275;SDS011;5183;51.190;6.820;2024-02-04T12:37:59;7.63;;;6.90;;
10275;SDS011;5183;51.190;6.820;2024-02-04T12:40:28;9.97;;;7.10;;
10275;SDS011;5183;51.190;6.820;2024-02-04T12:42:58;7.33;;;6.33;;
10275;SDS011;5183;51.190;6.820;2024-02-04T12:45:26;6.73;;;6.00;;
10275;SDS011;5183;51.190;6.820;2024-02-04T12:47:54;7.23;;;6.53;;
10275;SDS011;5183;51.190;6.820;2024-02-04T12:50:22;7.20;;;6.50;;
10275;SDS011;5183;51.190;6.820;2024-02-04T12:53:01;7.13;;;5.20;;
10275;SDS011;5183;51.190;6.820;2024-02-04T12:55:29;8.00;;;6.90;;
10275;SDS011;5183;51.190;6.820;2024-02-04T12:58:05;8.73;;;5.17;;
10275;SDS011;5183;51.190;6.820;2024-02-04T13:00:33;7.40;;;5.10;;
10275;SDS011;5183;51.190;6.820;2024-02-04T13:03:01;5.93;;;5.33;;
10275;SDS011;5183;51.190;6.820;2024-02-04T13:05:30;6.60;;;5.70;;
10275;SDS011;5183;51.190;6.820;2024-02-04T13:07:58;5.90;;;5.40;;
10275;SDS011;5183;51.190;6.820;2024-02-04T13:10:27;5.97;;;5.40;;
10275;SDS011;5183;51.190;6.820;2024-02-04T13:12:59;7.47;;;5.50;;
10275;SDS011;5183;51.190;6.820;2024-02-04T13:15:28;6.53;;;5.83;;
10275;SDS011;5183;51.190;6.820;2024-02-04T13:17:56;6.47;;;5.67;;
10275;SDS011;5183;51.190;6.820;2024-02-04T13:20:24;6.70;;;5.90;;
10275;SDS011;5183;51.190;6.820;2024-02-04T13:22:51;7.20;;;6.40;;
10275;SDS011;5183;51.190;6.820;2024-02-04T13:25:19;8.17;;;7.23;;
10275;SDS011;5183;51.190;6.820;2024-02-04T13:27:47;10.73;;;7.97;;
10275;SDS011;5183;51.190;6.820;2024-02-04T13:30:14;12.00;;;8.40;;
10275;SDS011;5183;51.190;6.820;2024-02-04T13:32:42;8.90;;;8.00;;
10275;SDS011;5183;51.190;6.820;2024-02-04T13:35:09;11.73;;;8.50;;
10275;SDS011;5183;51.190;6.820;2024-02-04T13:37:37;11.63;;;7.90;;
10275;SDS011;5183;51.190;6.820;2024-02-04T13:40:06;11.03;;;8.03;;
10275;SDS011;5183;51.190;6.820;2024-02-04T13:42:35;8.73;;;7.80;;
10275;SDS011;5183;51.190;6.820;2024-02-04T13:45:02;9.47;;;7.93;;
10275;SDS011;5183;51.190;6.820;2024-02-04T13:47:30;9.33;;;7.40;;
10275;SDS011;5183;51.190;6.820;2024-02-04T13:49:58;8.97;;;7.73;;
10275;SDS011;5183;51.190;6.820;2024-02-04T13:52:25;8.30;;;7.37;;
10275;SDS011;5183;51.190;6.820;2024-02-04T13:54:52;9.37;;;6.63;;
10275;SDS011;5183;51.190;6.820;2024-02-04T13:57:19;9.30;;;7.37;;
10275;SDS011;5183;51.190;6.820;2024-02-04T13:59:46;7.93;;;6.83;;
10275;SDS011;5183;51.190;6.820;2024-02-04T14:02:13;7.67;;;6.90;;
10275;SDS011;5183;51.190;6.820;2024-02-04T14:04:40;8.77;;;6.90;;
10275;SDS011;5183;51.190;6.820;2024-02-04T14:07:08;9.57;;;6.60;;
10275;SDS011;5183;51.190;6.820;2024-02-04T14:09:36;7.63;;;6.93;;
10275;SDS011;5183;51.190;6.820;2024-02-04T14:12:05;9.20;;;6.90;;
10275;SDS011;5183;51.190;6.820;2024-02-04T14:14:38;9.03;;;6.70;;
10275;SDS011;5183;51.190;6.820;2024-02-04T14:17:08;8.27;;;7.00;;
10275;SDS011;5183;51.190;6.820;2024-02-04T14:19:35;9.23;;;7.30;;
10275;SDS011;5183;51.190;6.820;2024-02-04T14:22:02;8.53;;;7.10;;
10275;SDS011;5183;51.190;6.820;2024-02-04T14:24:31;9.80;;;6.93;;
10275;SDS011;5183;51.190;6.820;2024-02-04T14:26:58;8.50;;;7.10;;
10275;SDS011;5183;51.190;6.820;2024-02-04T14:29:25;8.17;;;7.37;;
10275;SDS011;5183;51.190;6.820;2024-02-04T14:31:52;6.70;;;5.63;;
10275;SDS011;5183;51.190;6.820;2024-02-04T14:34:21;8.33;;;6.20;;
10275;SDS011;5183;51.190;6.820;2024-02-04T14:36:48;8.60;;;6.03;;
10275;SDS011;5183;51.190;6.820;2024-02-04T14:39:15;7.77;;;6.10;;
10275;SDS011;5183;51.190;6.820;2024-02-04T14:41:43;6.50;;;5.80;;
10275;SDS011;5183;51.190;6.820;2024-02-04T14:44:10;5.90;;;5.30;;
10275;SDS011;5183;51.190;6.820;2024-02-04T14:46:38;6.03;;;5.43;;
10275;SDS011;5183;51.190;6.820;2024-02-04T14:49:05;6.23;;;5.60;;
10275;SDS011;5183;51.190;6.820;2024-02-04T14:51:32;5.83;;;5.10;;
10275;SDS011;5183;51.190;6.820;2024-02-04T14:54:01;5.60;;;4.93;;